createdAt,value
2023-02-27T08:15:24.392Z,27.48
2023-02-27T08:16:25.595Z,26.87
2023-02-27T08:17:25.160Z,26.50
2023-02-27T08:18:25.619Z,26.35
2023-02-27T08:19:25.189Z,26.13
2023-02-27T08:20:25.133Z,25.86
2023-02-27T08:21:25.481Z,25.84
2023-02-27T08:22:25.116Z,25.77
2023-02-27T08:23:25.132Z,25.62
2023-02-27T08:24:25.374Z,25.56
2023-02-27T08:25:25.131Z,25.53
2023-02-27T08:26:25.707Z,25.47
2023-02-27T08:27:25.632Z,25.58
2023-02-27T08:28:25.370Z,25.49
2023-02-27T08:29:25.509Z,25.52
2023-02-27T08:30:25.250Z,25.51
2023-02-27T08:31:25.144Z,25.40
2023-02-27T08:32:25.434Z,25.52
2023-02-27T08:33:25.014Z,25.47
2023-02-27T08:34:24.998Z,25.49
2023-02-27T08:35:28.176Z,25.48
2023-02-27T08:36:26.160Z,25.55
2023-02-27T08:37:26.610Z,25.61
2023-02-27T08:38:26.505Z,25.50
2023-02-27T08:39:25.081Z,25.59
2023-02-27T08:40:25.364Z,25.61
2023-02-27T08:41:25.062Z,25.71
2023-02-27T08:42:26.939Z,25.67
2023-02-27T08:43:25.373Z,25.73
2023-02-27T08:44:25.036Z,25.78
2023-02-27T08:45:25.073Z,25.81
2023-02-27T08:46:25.365Z,25.83
2023-02-27T08:47:25.046Z,25.63
2023-02-27T08:48:25.378Z,25.27
2023-02-27T08:49:24.989Z,24.87
2023-02-27T08:50:25.380Z,24.66
2023-02-27T08:51:25.727Z,24.32
2023-02-27T08:52:25.153Z,24.21
2023-02-27T08:53:24.957Z,24.05
2023-02-27T08:54:25.305Z,23.91
2023-02-27T08:55:25.674Z,24.01
2023-02-27T08:56:25.110Z,24.11
2023-02-27T08:57:24.919Z,24.39
2023-02-27T08:58:24.907Z,24.45
2023-02-27T08:59:25.372Z,24.40
2023-02-27T09:00:25.548Z,23.82
2023-02-27T09:01:25.248Z,23.53
2023-02-27T09:02:24.906Z,23.21
2023-02-27T09:03:24.906Z,22.84
2023-02-27T09:04:24.856Z,22.48
2023-02-27T09:05:24.846Z,22.14
2023-02-27T09:06:26.361Z,22.17
2023-02-27T09:07:25.057Z,22.03
2023-02-27T09:08:25.045Z,22.09
2023-02-27T09:09:25.033Z,21.95
2023-02-27T09:10:25.037Z,21.88
2023-02-27T09:11:25.278Z,21.69
2023-02-27T09:12:25.027Z,21.57
2023-02-27T09:13:25.380Z,21.46
2023-02-27T09:14:25.007Z,21.26
2023-02-27T09:15:24.984Z,21.27
2023-02-27T09:16:25.708Z,21.16
2023-02-27T09:17:24.962Z,21.10
2023-02-27T09:18:24.979Z,20.97
2023-02-27T09:19:24.968Z,20.88
2023-02-27T09:20:24.941Z,20.91
2023-02-27T09:21:25.393Z,20.88
2023-02-27T09:22:24.918Z,20.88
2023-02-27T09:23:24.906Z,20.65
2023-02-27T09:24:24.903Z,20.67
2023-02-27T09:25:24.885Z,20.50
2023-02-27T09:26:40.744Z,20.65
2023-02-27T09:27:24.871Z,20.48
2023-02-27T09:28:24.894Z,20.60
2023-02-27T09:29:24.853Z,20.42
2023-02-27T09:30:24.846Z,20.40
2023-02-27T09:31:24.884Z,20.37
2023-02-27T09:32:25.073Z,20.29
2023-02-27T09:33:27.012Z,20.26
2023-02-27T09:34:25.385Z,20.26
2023-02-27T09:35:24.820Z,20.13
2023-02-27T09:36:24.861Z,20.00
2023-02-27T09:37:24.910Z,19.98
2023-02-27T09:38:24.885Z,19.90
2023-02-27T09:39:24.761Z,20.00
2023-02-27T09:40:24.755Z,19.95
2023-02-27T09:41:25.118Z,20.02
2023-02-27T09:42:24.738Z,20.06
2023-02-27T09:43:24.804Z,20.13
2023-02-27T09:44:39.844Z,20.32
2023-02-27T09:45:32.146Z,20.46
2023-02-27T09:46:25.395Z,20.67
2023-02-27T09:47:24.729Z,20.70
2023-02-27T09:48:25.681Z,20.78
2023-02-27T09:51:24.964Z,21.16
2023-02-27T09:52:24.656Z,21.29
2023-02-27T09:53:24.633Z,21.41
2023-02-27T09:54:24.626Z,21.52
2023-02-27T09:56:25.277Z,21.67
2023-02-27T09:58:24.628Z,21.80
2023-02-27T09:59:24.595Z,21.89
2023-02-27T10:00:24.908Z,21.91
2023-02-27T10:03:24.607Z,22.13
2023-02-27T10:04:24.539Z,22.21
2023-02-27T10:05:24.534Z,22.29
2023-02-27T10:06:24.992Z,22.34
2023-02-27T10:08:24.536Z,22.42
2023-02-27T10:09:24.898Z,22.50
2023-02-27T10:10:25.391Z,22.62
2023-02-27T10:11:24.903Z,22.87
2023-02-27T10:13:24.449Z,22.89
2023-02-27T10:14:24.452Z,23.12
2023-02-27T10:16:24.472Z,23.28
2023-02-27T10:17:24.418Z,23.33
2023-02-27T10:18:29.062Z,23.42
2023-02-27T10:19:24.398Z,23.53
2023-02-27T10:31:25.793Z,24.47
2023-02-27T10:34:25.493Z,24.73
2023-02-27T10:36:33.950Z,24.81
2023-02-27T10:44:25.416Z,25.01
2023-02-27T11:53:26.950Z,21.59
2023-02-27T13:02:24.412Z,25.06
2023-02-27T14:18:33.647Z,22.57
2023-02-27T14:23:25.563Z,22.57
2023-02-27T14:50:25.463Z,22.33
2023-02-27T15:00:37.630Z,21.70
2023-02-27T15:02:22.513Z,21.64
2023-02-27T15:04:23.776Z,21.50
2023-02-27T15:13:22.401Z,21.38
2023-02-27T15:15:22.583Z,21.38
2023-02-27T15:16:22.957Z,21.33
2023-02-27T15:17:22.797Z,21.39
2023-02-27T15:18:22.617Z,21.53
2023-02-27T15:19:23.033Z,21.62
2023-02-27T15:20:22.762Z,21.78
2023-02-27T15:21:22.448Z,21.88
2023-02-27T15:22:37.557Z,22.70
2023-02-27T15:24:23.176Z,23.36
2023-02-27T15:25:22.648Z,23.40
2023-02-27T15:26:22.587Z,23.42
2023-02-27T15:27:23.680Z,23.57
2023-02-27T15:28:22.548Z,23.54
2023-02-27T15:29:23.221Z,23.49
2023-02-27T15:30:22.599Z,23.46
2023-02-27T15:31:22.860Z,23.44
2023-02-27T15:34:23.285Z,23.36
2023-02-27T15:35:22.526Z,23.37
2023-02-27T15:36:22.343Z,23.37
2023-02-27T15:37:22.528Z,23.34
2023-02-27T15:39:22.486Z,23.28
2023-02-27T15:40:22.480Z,23.28
2023-02-27T15:41:22.526Z,23.28
2023-02-27T15:42:22.635Z,23.21
2023-02-27T15:44:22.583Z,23.20
2023-02-27T15:45:22.637Z,23.20
2023-02-27T15:46:22.673Z,23.18
2023-02-27T15:47:22.518Z,23.10
2023-02-27T15:48:22.623Z,23.14
2023-02-27T15:49:22.504Z,23.09
2023-02-27T15:50:22.485Z,23.12
2023-02-27T15:51:22.381Z,23.01
2023-02-27T15:52:22.420Z,23.07
2023-02-27T15:53:22.502Z,23.03
2023-02-27T15:54:22.371Z,23.01
2023-02-27T15:55:21.972Z,22.99
2023-02-27T15:56:22.464Z,22.93
2023-02-27T15:57:22.458Z,22.92
2023-02-27T15:58:22.406Z,22.92
2023-02-27T16:00:21.888Z,22.93
2023-02-27T16:01:22.368Z,22.88
2023-02-27T16:02:22.370Z,22.90
2023-02-27T16:03:22.159Z,22.83
2023-02-27T16:04:22.220Z,22.85
2023-02-27T16:05:21.938Z,22.86
2023-02-27T16:06:22.388Z,22.83
2023-02-27T16:07:22.161Z,22.80
2023-02-27T16:08:22.320Z,22.79
2023-02-27T16:09:29.109Z,22.79
2023-02-27T16:10:22.132Z,22.77
2023-02-27T16:11:23.310Z,22.77
2023-02-27T16:12:22.824Z,22.74
2023-02-27T16:13:22.500Z,22.74
2023-02-27T16:14:23.696Z,22.74
2023-02-27T16:15:28.696Z,22.69
2023-02-27T16:16:21.986Z,22.66
2023-02-27T16:17:21.740Z,22.67
2023-02-27T16:18:22.030Z,22.61
2023-02-27T16:19:21.742Z,22.66
2023-02-27T16:20:21.714Z,22.66
2023-02-27T16:21:22.541Z,22.66
2023-02-27T16:22:21.699Z,22.61
2023-02-27T16:23:22.030Z,22.61
2023-02-27T16:24:21.677Z,22.62
2023-02-27T16:25:21.662Z,22.58
2023-02-27T16:26:21.666Z,22.56
2023-02-27T16:27:21.645Z,22.53
2023-02-27T16:29:21.642Z,22.48
2023-02-27T16:30:21.622Z,22.49
2023-02-27T16:31:24.670Z,22.50
2023-02-27T16:32:21.657Z,22.50
2023-02-27T16:33:22.543Z,22.48
2023-02-27T16:34:21.590Z,22.46
2023-02-27T16:35:21.582Z,22.48
2023-02-27T16:36:21.569Z,22.45
2023-02-27T16:37:22.535Z,22.42
2023-02-27T16:38:28.556Z,22.40
2023-02-27T16:39:22.049Z,22.45
2023-02-27T16:40:21.725Z,22.37
2023-02-27T16:41:21.694Z,22.43
2023-02-27T16:42:21.522Z,22.42
2023-02-27T16:43:21.495Z,22.39
2023-02-27T16:44:21.489Z,22.35
2023-02-27T16:45:21.486Z,22.34
2023-02-27T16:46:21.488Z,22.37
2023-02-27T16:47:22.063Z,22.29
2023-02-27T16:48:21.457Z,22.34
2023-02-27T16:49:21.451Z,22.34
2023-02-27T16:50:21.438Z,22.34
2023-02-27T16:51:21.423Z,22.27
2023-02-27T16:52:21.417Z,22.27
2023-02-27T16:53:21.540Z,22.20
2023-02-27T16:54:21.408Z,22.31
2023-02-27T16:55:21.393Z,22.29
2023-02-27T16:56:32.278Z,22.24
2023-02-27T16:57:21.368Z,22.30
2023-02-27T16:58:24.056Z,22.23
2023-02-27T16:59:21.366Z,22.21
2023-02-27T17:00:21.342Z,22.23
2023-02-27T17:01:21.356Z,22.22
2023-02-27T17:02:21.333Z,22.16
2023-02-27T17:03:21.342Z,22.15
2023-02-27T17:04:25.805Z,22.19
2023-02-27T17:05:21.299Z,22.18
2023-02-27T17:06:21.291Z,22.18
2023-02-27T17:07:22.052Z,22.15
2023-02-27T17:08:21.556Z,22.10
2023-02-27T17:09:21.567Z,22.15
2023-02-27T17:10:21.251Z,22.16
2023-02-27T17:11:24.050Z,22.11
2023-02-27T17:12:21.236Z,22.08
2023-02-27T17:13:22.050Z,22.15
2023-02-27T17:14:21.221Z,22.10
2023-02-27T17:15:21.206Z,22.10
2023-02-27T17:16:21.234Z,22.07
2023-02-27T17:17:21.197Z,22.07
2023-02-27T17:18:21.181Z,22.08
2023-02-27T17:19:21.203Z,22.05
2023-02-27T17:20:21.162Z,22.04
2023-02-27T17:21:21.152Z,22.04
2023-02-27T17:22:21.157Z,21.99
2023-02-27T17:23:21.132Z,22.05
2023-02-27T17:24:21.124Z,22.02
2023-02-27T17:25:21.112Z,22.00
2023-02-27T17:26:21.102Z,21.97
2023-02-27T17:27:22.059Z,21.94
2023-02-27T17:28:21.197Z,22.00
2023-02-27T17:29:21.203Z,21.99
2023-02-27T17:30:21.167Z,21.94
2023-02-27T17:31:21.162Z,21.91
2023-02-27T17:32:21.185Z,21.97
2023-02-27T17:33:21.148Z,21.92
2023-02-27T17:34:22.069Z,21.96
2023-02-27T17:35:21.154Z,21.97
2023-02-27T17:36:20.131Z,21.94
2023-02-27T17:37:21.105Z,21.91
2023-02-27T17:38:21.107Z,21.95
2023-02-27T17:39:21.090Z,21.88
2023-02-27T17:40:22.069Z,21.91
2023-02-27T17:41:21.082Z,21.89
2023-02-27T17:42:21.061Z,21.86
2023-02-27T17:43:21.562Z,21.92
2023-02-27T17:44:21.084Z,21.87
2023-02-27T17:45:21.035Z,21.87
2023-02-27T17:46:21.084Z,21.87
2023-02-27T17:47:21.015Z,21.87
2023-02-27T17:48:21.009Z,21.83
2023-02-27T17:50:21.075Z,21.81
2023-02-27T17:51:21.004Z,21.83
2023-02-27T17:52:20.969Z,21.83
2023-02-27T17:53:20.955Z,21.83
2023-02-27T17:54:20.958Z,21.83
2023-02-27T17:55:20.947Z,21.81
2023-02-27T17:56:20.937Z,21.78
2023-02-27T17:58:20.920Z,21.78
2023-02-27T17:59:20.901Z,21.70
2023-02-27T18:00:20.894Z,21.80
2023-02-27T18:01:20.997Z,21.73
2023-02-27T18:02:20.918Z,21.76
2023-02-27T18:03:20.865Z,21.78
2023-02-27T18:04:20.861Z,21.75
2023-02-27T18:05:20.851Z,21.70
2023-02-27T18:06:20.845Z,21.72
2023-02-27T18:07:21.589Z,21.68
2023-02-27T18:08:20.815Z,21.72
2023-02-27T18:09:20.823Z,21.73
2023-02-27T18:10:23.584Z,21.78
2023-02-27T18:11:20.797Z,21.70
2023-02-27T18:12:20.786Z,21.71
2023-02-27T18:13:20.775Z,21.68
2023-02-27T18:14:21.569Z,21.65
2023-02-27T18:15:20.754Z,21.64
2023-02-27T18:16:20.739Z,21.70
2023-02-27T18:17:20.743Z,21.67
2023-02-27T18:18:20.725Z,21.68
2023-02-27T18:19:20.722Z,21.67
2023-02-27T18:20:20.711Z,21.67
2023-02-27T18:21:21.170Z,21.60
2023-02-27T18:22:20.688Z,21.57
2023-02-27T18:23:20.707Z,21.62
2023-02-27T18:24:20.669Z,21.64
2023-02-27T18:25:20.660Z,21.56
2023-02-27T18:26:29.387Z,21.59
2023-02-27T18:27:20.651Z,21.61
2023-02-27T18:28:20.650Z,21.53
2023-02-27T18:29:20.622Z,21.57
2023-02-27T18:30:21.086Z,21.54
2023-02-27T18:31:20.631Z,21.59
2023-02-27T18:32:20.652Z,21.54
2023-02-27T18:33:20.586Z,21.53
2023-02-27T18:34:20.592Z,21.56
2023-02-27T18:35:20.773Z,21.56
2023-02-27T18:36:21.074Z,21.51
2023-02-27T18:37:20.582Z,21.59
2023-02-27T18:38:20.590Z,21.52
2023-02-27T18:39:20.580Z,21.52
2023-02-27T18:40:20.523Z,21.51
2023-02-27T18:41:20.518Z,21.49
2023-02-27T18:42:20.508Z,21.49
2023-02-27T18:43:20.489Z,21.51
2023-02-27T18:44:20.489Z,21.52
2023-02-27T18:45:20.501Z,21.49
2023-02-27T18:46:20.678Z,21.46
2023-02-27T18:47:20.456Z,21.49
2023-02-27T18:48:20.453Z,21.45
2023-02-27T18:50:20.435Z,21.46
2023-02-27T18:51:20.442Z,21.43
2023-02-27T18:52:20.410Z,21.45
2023-02-27T18:53:20.429Z,21.40
2023-02-27T18:54:20.393Z,21.37
2023-02-27T18:55:20.417Z,21.43
2023-02-27T18:56:20.380Z,21.46
2023-02-27T18:57:20.368Z,21.44
2023-02-27T18:58:20.362Z,21.37
2023-02-27T18:59:21.086Z,21.43
2023-02-27T19:00:21.082Z,21.41
2023-02-27T19:01:20.373Z,21.33
2023-02-27T19:02:20.324Z,21.37
2023-02-27T19:03:20.394Z,21.40
2023-02-27T19:04:21.103Z,21.33
2023-02-27T19:05:20.286Z,21.32
2023-02-27T19:06:20.289Z,21.35
2023-02-27T19:07:20.277Z,21.32
2023-02-27T19:08:20.263Z,21.29
2023-02-27T19:09:22.176Z,21.30
2023-02-27T19:10:20.246Z,21.32
2023-02-27T19:11:20.267Z,21.32
2023-02-27T19:12:21.089Z,21.35
2023-02-27T19:13:20.320Z,21.28
2023-02-27T19:14:20.306Z,21.29
2023-02-27T19:15:20.302Z,21.33
2023-02-27T19:16:20.416Z,21.27
2023-02-27T19:17:20.295Z,21.32
2023-02-27T19:18:20.289Z,21.27
2023-02-27T19:19:20.266Z,21.32
2023-02-27T19:20:20.249Z,21.24
2023-02-27T19:21:20.260Z,21.30
2023-02-27T19:22:20.234Z,21.32
2023-02-27T19:23:21.096Z,21.32
2023-02-27T19:24:20.214Z,21.26
2023-02-27T19:25:20.216Z,21.28
2023-02-27T19:26:21.099Z,21.27
2023-02-27T19:27:20.220Z,21.30
2023-02-27T19:28:20.176Z,21.25
2023-02-27T19:29:20.178Z,21.24
2023-02-27T19:30:20.598Z,21.25
2023-02-27T19:31:20.192Z,21.22
2023-02-27T19:32:21.173Z,21.22
2023-02-27T19:33:20.132Z,21.25
2023-02-27T19:34:21.097Z,21.22
2023-02-27T19:35:20.114Z,21.22
2023-02-27T19:36:20.110Z,21.21
2023-02-27T19:37:20.091Z,21.19
2023-02-27T19:38:20.087Z,21.19
2023-02-27T19:39:20.077Z,21.21
2023-02-27T19:40:20.077Z,21.25
2023-02-27T19:41:20.104Z,21.17
2023-02-27T19:42:20.047Z,21.17
2023-02-27T19:43:20.625Z,21.17
2023-02-27T19:45:20.023Z,21.19
2023-02-27T19:46:20.159Z,21.19
2023-02-27T19:47:20.005Z,21.16
2023-02-27T19:48:20.010Z,21.14
2023-02-27T19:49:19.981Z,21.19
2023-02-27T19:50:19.975Z,21.16
2023-02-27T19:51:19.975Z,21.13
2023-02-27T19:52:19.954Z,21.13
2023-02-27T19:53:19.946Z,21.13
2023-02-27T19:54:19.939Z,21.17
2023-02-27T19:55:19.936Z,21.14
2023-02-27T19:56:19.929Z,21.14
2023-02-27T19:57:20.650Z,21.11
2023-02-27T19:58:19.897Z,21.10
2023-02-27T19:59:19.914Z,21.10
2023-02-27T20:00:19.886Z,21.10
2023-02-27T20:01:19.878Z,21.11
2023-02-27T20:02:19.868Z,21.10
2023-02-27T20:03:20.613Z,21.10
2023-02-27T20:04:19.932Z,21.11
2023-02-27T20:05:19.861Z,21.10
2023-02-27T20:06:20.607Z,21.11
2023-02-27T20:07:19.825Z,21.08
2023-02-27T20:08:19.813Z,21.08
2023-02-27T20:09:19.797Z,21.06
2023-02-27T20:10:19.886Z,21.05
2023-02-27T20:11:20.618Z,21.02
2023-02-27T20:12:19.777Z,21.14
2023-02-27T20:13:19.762Z,21.10
2023-02-27T20:14:19.759Z,21.00
2023-02-27T20:15:19.767Z,21.02
2023-02-27T20:16:19.807Z,21.05
2023-02-27T20:17:19.729Z,21.03
2023-02-27T20:18:19.719Z,21.03
2023-02-27T20:19:19.708Z,21.03
2023-02-27T20:20:20.618Z,21.02
2023-02-27T20:21:19.710Z,21.00
2023-02-27T20:22:19.677Z,21.02
2023-02-27T20:23:19.676Z,21.02
2023-02-27T20:25:19.659Z,21.04
2023-02-27T20:26:19.654Z,20.98
2023-02-27T20:27:19.628Z,21.03
2023-02-27T20:28:19.620Z,21.03
2023-02-27T20:29:19.633Z,20.98
2023-02-27T20:30:19.603Z,21.03
2023-02-27T20:31:19.678Z,20.98
2023-02-27T20:32:19.809Z,21.00
2023-02-27T20:33:19.591Z,21.03
2023-02-27T20:34:19.564Z,20.97
2023-02-27T20:35:19.560Z,20.97
2023-02-27T20:36:19.553Z,21.00
2023-02-27T20:37:19.624Z,20.97
2023-02-27T20:38:19.533Z,20.95
2023-02-27T20:39:19.521Z,21.00
2023-02-27T20:40:26.131Z,20.97
2023-02-27T20:41:19.565Z,20.98
2023-02-27T20:42:19.636Z,20.97
2023-02-27T20:43:19.480Z,20.97
2023-02-27T20:44:19.470Z,20.98
2023-02-27T20:45:19.469Z,20.97
2023-02-27T20:46:19.543Z,20.89
2023-02-27T20:47:19.476Z,20.95
2023-02-27T20:48:19.438Z,20.94
2023-02-27T20:49:19.435Z,20.95
2023-02-27T20:50:19.419Z,20.97
2023-02-27T20:51:19.416Z,20.92
2023-02-27T20:52:19.407Z,20.91
2023-02-27T20:53:19.403Z,20.92
2023-02-27T20:54:20.516Z,20.92
2023-02-27T20:55:19.392Z,20.92
2023-02-27T20:56:19.364Z,20.87
2023-02-27T20:57:19.368Z,20.94
2023-02-27T20:58:19.637Z,20.91
2023-02-27T20:59:19.340Z,20.89
2023-02-27T21:00:19.332Z,20.91
2023-02-27T21:01:19.408Z,20.86
2023-02-27T21:02:19.315Z,20.87
2023-02-27T21:03:19.334Z,20.87
2023-02-27T21:04:22.265Z,20.89
2023-02-27T21:06:19.292Z,20.90
2023-02-27T21:07:19.272Z,20.83
2023-02-27T21:08:19.263Z,20.90
2023-02-27T21:09:26.130Z,20.81
2023-02-27T21:10:19.234Z,20.91
2023-02-27T21:12:19.227Z,20.87
2023-02-27T21:13:19.214Z,20.89
2023-02-27T21:14:19.203Z,20.86
2023-02-27T21:15:19.196Z,20.81
2023-02-27T21:16:19.281Z,20.81
2023-02-27T21:17:19.181Z,20.84
2023-02-27T21:18:19.190Z,20.90
2023-02-27T21:19:19.188Z,20.83
2023-02-27T21:20:20.136Z,20.83
2023-02-27T21:21:19.142Z,20.83
2023-02-27T21:22:19.131Z,20.81
2023-02-27T21:23:19.122Z,20.83
2023-02-27T21:24:19.108Z,20.83
2023-02-27T21:25:19.634Z,20.83
2023-02-27T21:26:19.087Z,20.81
2023-02-27T21:27:19.642Z,20.78
2023-02-27T21:28:19.069Z,20.75
2023-02-27T21:29:19.069Z,20.80
2023-02-27T21:30:19.064Z,20.78
2023-02-27T21:31:19.177Z,20.78
2023-02-27T21:32:19.090Z,20.78
2023-02-27T21:33:19.018Z,20.81
2023-02-27T21:34:19.647Z,20.78
2023-02-27T21:36:18.998Z,20.75
2023-02-27T21:37:19.016Z,20.81
2023-02-27T21:38:18.983Z,20.80
2023-02-27T21:39:19.652Z,20.78
2023-02-27T21:40:19.641Z,20.73
2023-02-27T21:41:18.948Z,20.78
2023-02-27T21:42:18.973Z,20.70
2023-02-27T21:43:18.931Z,20.71
2023-02-27T21:44:18.926Z,20.71
2023-02-27T21:45:18.915Z,20.73
2023-02-27T21:46:18.938Z,20.73
2023-02-27T21:47:18.989Z,20.75
2023-02-27T21:48:19.649Z,20.73
2023-02-27T21:49:18.883Z,20.72
2023-02-27T21:50:18.862Z,20.76
2023-02-27T21:51:33.077Z,20.73
2023-02-27T21:52:18.860Z,20.69
2023-02-27T21:53:18.838Z,20.72
2023-02-27T21:54:18.824Z,20.73
2023-02-27T21:55:18.828Z,20.69
2023-02-27T21:56:19.644Z,20.73
2023-02-27T21:57:18.804Z,20.67
2023-02-27T21:58:18.800Z,20.65
2023-02-27T21:59:18.788Z,20.71
2023-02-27T22:00:18.821Z,20.71
2023-02-27T22:01:19.697Z,20.73
2023-02-27T22:02:18.841Z,20.70
2023-02-27T22:03:18.752Z,20.69
2023-02-27T22:04:18.735Z,20.67
2023-02-27T22:05:18.725Z,20.62
2023-02-27T22:06:18.717Z,20.63
2023-02-27T22:07:19.672Z,20.70
2023-02-27T22:08:18.704Z,20.69
2023-02-27T22:09:18.700Z,20.64
2023-02-27T22:10:18.685Z,20.68
2023-02-27T22:11:18.671Z,20.65
2023-02-27T22:12:18.659Z,20.64
2023-02-27T22:13:18.651Z,20.64
2023-02-27T22:14:18.655Z,20.69
2023-02-27T22:15:18.631Z,20.65
2023-02-27T22:16:18.694Z,20.67
2023-02-27T22:17:18.614Z,20.65
2023-02-27T22:18:18.603Z,20.61
2023-02-27T22:19:18.597Z,20.62
2023-02-27T22:20:18.590Z,20.64
2023-02-27T22:21:18.584Z,20.62
2023-02-27T22:22:18.577Z,20.57
2023-02-27T22:23:18.592Z,20.60
2023-02-27T22:24:18.576Z,20.65
2023-02-27T22:25:18.545Z,20.65
2023-02-27T22:26:18.546Z,20.61
2023-02-27T22:27:18.540Z,20.63
2023-02-27T22:28:18.513Z,20.65
2023-02-27T22:29:18.508Z,20.56
2023-02-27T22:30:18.497Z,20.62
2023-02-27T22:31:18.590Z,20.62
2023-02-27T22:32:18.509Z,20.56
2023-02-27T22:33:18.468Z,20.62
2023-02-27T22:34:18.517Z,20.60
2023-02-27T22:35:18.448Z,20.57
2023-02-27T22:36:18.451Z,20.60
2023-02-27T22:37:18.430Z,20.53
2023-02-27T22:38:18.482Z,20.60
2023-02-27T22:39:18.440Z,20.57
2023-02-27T22:40:18.400Z,20.59
2023-02-27T22:41:18.416Z,20.59
2023-02-27T22:42:18.398Z,20.59
2023-02-27T22:43:18.375Z,20.54
2023-02-27T22:44:18.366Z,20.54
2023-02-27T22:45:18.352Z,20.56
2023-02-27T22:46:18.367Z,20.56
2023-02-27T22:47:18.370Z,20.53
2023-02-27T22:48:18.675Z,20.54
2023-02-27T22:49:18.330Z,20.50
2023-02-27T22:50:18.336Z,20.51
2023-02-27T22:51:19.166Z,20.51
2023-02-27T22:52:18.289Z,20.50
2023-02-27T22:53:18.283Z,20.53
2023-02-27T22:54:18.271Z,20.56
2023-02-27T22:55:18.286Z,20.51
2023-02-27T22:56:18.256Z,20.54
2023-02-27T22:57:18.246Z,20.56
2023-02-27T22:58:18.269Z,20.48
2023-02-27T22:59:18.233Z,20.48
2023-02-27T23:00:18.217Z,20.50
2023-02-27T23:01:18.285Z,20.52
2023-02-27T23:02:18.196Z,20.46
2023-02-27T23:03:17.191Z,20.51
2023-02-27T23:04:18.188Z,20.53
2023-02-27T23:05:18.177Z,20.51
2023-02-27T23:06:18.164Z,20.51
2023-02-27T23:07:18.670Z,20.48
2023-02-27T23:08:18.143Z,20.48
2023-02-27T23:09:18.144Z,20.43
2023-02-27T23:10:18.128Z,20.43
2023-02-27T23:11:18.150Z,20.50
2023-02-27T23:12:18.105Z,20.45
2023-02-27T23:13:18.100Z,20.42
2023-02-27T23:14:18.090Z,20.48
2023-02-27T23:15:18.719Z,20.48
2023-02-27T23:16:18.277Z,20.45
2023-02-27T23:17:18.059Z,20.46
2023-02-27T23:18:18.054Z,20.42
2023-02-27T23:19:18.042Z,20.40
2023-02-27T23:20:18.040Z,20.40
2023-02-27T23:21:18.124Z,20.40
2023-02-27T23:22:18.014Z,20.43
2023-02-27T23:23:18.007Z,20.40
2023-02-27T23:24:18.012Z,20.39
2023-02-27T23:25:17.983Z,20.42
2023-02-27T23:26:17.982Z,20.43
2023-02-27T23:27:25.926Z,20.43
2023-02-27T23:28:17.969Z,20.43
2023-02-27T23:29:17.948Z,20.41
2023-02-27T23:30:17.946Z,20.42
2023-02-27T23:31:17.954Z,20.37
2023-02-27T23:32:18.080Z,20.43
2023-02-27T23:33:17.917Z,20.39
2023-02-27T23:34:17.918Z,20.38
2023-02-27T23:35:17.897Z,20.41
2023-02-27T23:36:17.881Z,20.40
2023-02-27T23:37:17.882Z,20.41
2023-02-27T23:38:17.866Z,20.38
2023-02-27T23:40:17.851Z,20.39
2023-02-27T23:41:17.847Z,20.40
2023-02-27T23:42:17.838Z,20.39
2023-02-27T23:43:17.843Z,20.41
2023-02-27T23:44:17.807Z,20.37
2023-02-27T23:45:17.795Z,20.38
2023-02-27T23:46:17.794Z,20.40
2023-02-27T23:47:18.194Z,20.38
2023-02-27T23:48:17.776Z,20.43
2023-02-27T23:49:17.763Z,20.38
2023-02-27T23:50:17.755Z,20.32
2023-02-27T23:51:17.746Z,20.34
2023-02-27T23:52:17.746Z,20.32
2023-02-27T23:53:18.263Z,20.32
2023-02-27T23:54:17.724Z,20.34
2023-02-27T23:55:17.710Z,20.32
2023-02-27T23:56:17.702Z,20.31
2023-02-27T23:57:17.694Z,20.37
2023-02-27T23:58:17.696Z,20.32
2023-02-27T23:59:17.705Z,20.31
